createdAt,value
2018-01-04T00:02:04.885Z,2.37
2018-01-04T00:04:33.231Z,2.73
2018-01-04T00:07:01.646Z,1.67
2018-01-04T00:09:29.973Z,1.37
2018-01-04T00:11:58.298Z,2.25
2018-01-04T00:14:26.635Z,2.53
2018-01-04T00:16:55.045Z,2.00
2018-01-04T00:19:23.438Z,2.12
2018-01-04T00:21:51.694Z,2.50
2018-01-04T00:24:20.045Z,2.40
2018-01-04T00:26:48.358Z,2.55
2018-01-04T00:29:16.678Z,2.75
2018-01-04T00:31:45.006Z,1.98
2018-01-04T00:34:13.378Z,1.87
2018-01-04T00:36:41.713Z,3.10
2018-01-04T00:39:10.035Z,2.00
2018-01-04T00:41:38.359Z,3.05
2018-01-04T00:44:06.669Z,2.72
2018-01-04T00:46:35.061Z,1.70
2018-01-04T00:49:03.369Z,2.42
2018-01-04T00:51:31.698Z,1.98
2018-01-04T00:54:00.090Z,2.10
2018-01-04T00:56:28.474Z,2.60
2018-01-04T00:58:56.786Z,4.12
2018-01-04T01:01:25.117Z,3.25
2018-01-04T01:03:53.433Z,2.95
2018-01-04T01:06:21.773Z,3.17
2018-01-04T01:08:50.086Z,3.47
2018-01-04T01:11:18.413Z,2.90
2018-01-04T01:13:46.725Z,3.80
2018-01-04T01:16:15.057Z,3.70
2018-01-04T01:18:43.458Z,3.55
2018-01-04T01:21:11.795Z,3.53
2018-01-04T01:23:40.101Z,3.65
2018-01-04T01:26:08.442Z,4.32
2018-01-04T01:28:36.762Z,3.50
2018-01-04T01:31:05.094Z,4.15
2018-01-04T01:33:33.516Z,3.92
2018-01-04T01:36:01.850Z,2.90
2018-01-04T01:38:30.153Z,6.10
2018-01-04T01:40:58.491Z,4.80
2018-01-04T01:43:26.818Z,4.22
2018-01-04T01:45:55.193Z,4.15
2018-01-04T01:48:23.570Z,5.37
2018-01-04T01:50:51.945Z,3.95
2018-01-04T01:53:20.257Z,4.50
2018-01-04T01:55:48.595Z,4.32
2018-01-04T01:58:16.976Z,4.78
2018-01-04T02:00:45.318Z,3.80
2018-01-04T02:03:13.734Z,3.92
2018-01-04T02:05:42.074Z,3.65
2018-01-04T02:08:10.391Z,4.37
2018-01-04T02:10:38.714Z,3.75
2018-01-04T02:13:07.026Z,5.32
2018-01-04T02:15:35.418Z,3.55
2018-01-04T02:18:15.521Z,4.15
2018-01-04T02:20:55.761Z,3.53
2018-01-04T02:23:36.034Z,5.28
2018-01-04T02:26:04.365Z,4.15
2018-01-04T02:28:44.614Z,3.28
2018-01-04T02:31:24.966Z,3.10
2018-01-04T02:34:05.028Z,5.35
2018-01-04T02:36:45.273Z,3.95
2018-01-04T02:39:25.118Z,3.85
2018-01-04T02:42:04.969Z,5.50
2018-01-04T02:44:39.902Z,4.28
2018-01-04T02:47:07.955Z,3.45
2018-01-04T02:49:35.990Z,4.10
2018-01-04T02:52:04.042Z,3.30
2018-01-04T02:54:32.074Z,3.85
2018-01-04T02:57:00.130Z,4.65
2018-01-04T02:59:28.167Z,4.28
2018-01-04T03:01:56.281Z,4.53
2018-01-04T03:04:24.353Z,5.18
2018-01-04T03:06:52.401Z,2.80
2018-01-04T03:09:20.493Z,3.70
2018-01-04T03:11:48.567Z,4.18
2018-01-04T03:14:16.638Z,4.53
2018-01-04T03:16:44.686Z,2.83
2018-01-04T03:19:12.721Z,4.05
2018-01-04T03:21:46.311Z,3.35
2018-01-04T03:24:14.337Z,3.45
2018-01-04T03:26:48.010Z,4.12
2018-01-04T03:29:21.534Z,3.00
2018-01-04T03:31:55.094Z,4.03
2018-01-04T03:34:28.938Z,3.70
2018-01-04T03:37:02.721Z,3.85
2018-01-04T03:39:30.823Z,4.53
2018-01-04T03:42:04.553Z,4.35
2018-01-04T03:44:38.269Z,4.22
2018-01-04T03:47:12.034Z,3.00
2018-01-04T03:49:45.802Z,4.20
2018-01-04T03:52:32.696Z,3.50
2018-01-04T03:55:06.434Z,5.28
2018-01-04T03:57:40.162Z,4.72
2018-01-04T04:00:13.883Z,4.35
2018-01-04T04:02:47.474Z,5.62
2018-01-04T04:05:21.218Z,5.10
2018-01-04T04:07:49.270Z,4.62
2018-01-04T04:10:17.393Z,4.50
2018-01-04T04:12:45.441Z,4.65
2018-01-04T04:15:13.477Z,3.80
2018-01-04T04:17:41.533Z,4.85
2018-01-04T04:20:09.561Z,4.32
2018-01-04T04:22:37.617Z,5.75
2018-01-04T04:25:05.655Z,4.95
2018-01-04T04:27:33.705Z,4.50
2018-01-04T04:30:01.742Z,4.80
2018-01-04T04:32:29.789Z,3.70
2018-01-04T04:34:57.894Z,4.37
2018-01-04T04:37:25.951Z,4.55
2018-01-04T04:39:53.978Z,4.53
2018-01-04T04:42:22.097Z,2.85
2018-01-04T04:44:50.139Z,4.03
2018-01-04T04:47:18.237Z,4.37
2018-01-04T04:49:46.314Z,4.22
2018-01-04T04:52:14.370Z,3.80
2018-01-04T04:54:42.406Z,3.78
2018-01-04T04:57:10.473Z,3.55
2018-01-04T04:59:38.596Z,4.18
2018-01-04T05:02:06.645Z,4.87
2018-01-04T05:04:34.686Z,4.70
2018-01-04T05:07:02.802Z,3.33
2018-01-04T05:09:30.870Z,5.80
2018-01-04T05:11:58.905Z,4.62
2018-01-04T05:14:26.969Z,4.75
2018-01-04T05:16:54.998Z,4.00
2018-01-04T05:19:23.149Z,5.40
2018-01-04T05:21:51.181Z,5.12
2018-01-04T05:24:19.239Z,6.72
2018-01-04T05:26:47.269Z,5.00
2018-01-04T05:29:15.437Z,4.53
2018-01-04T05:31:43.469Z,4.37
2018-01-04T05:34:11.526Z,4.15
2018-01-04T05:36:39.553Z,4.65
2018-01-04T05:39:07.614Z,4.32
2018-01-04T05:41:35.644Z,4.93
2018-01-04T05:44:03.702Z,4.72
2018-01-04T05:46:31.734Z,4.22
2018-01-04T05:48:59.791Z,3.72
2018-01-04T05:51:27.830Z,6.03
2018-01-04T05:53:55.877Z,4.93
2018-01-04T05:56:23.909Z,4.95
2018-01-04T05:58:51.963Z,5.65
2018-01-04T06:01:19.994Z,4.80
2018-01-04T06:03:48.051Z,4.87
2018-01-04T06:06:16.082Z,4.05
2018-01-04T06:08:44.137Z,6.10
2018-01-04T06:11:12.173Z,4.95
2018-01-04T06:13:40.218Z,5.47
2018-01-04T06:16:08.246Z,5.97
2018-01-04T06:18:36.302Z,4.25
2018-01-04T06:21:04.340Z,5.85
2018-01-04T06:23:34.426Z,5.30
2018-01-04T06:26:02.681Z,6.10
2018-01-04T06:28:30.739Z,6.50
2018-01-04T06:30:58.774Z,4.62
2018-01-04T06:33:26.990Z,6.70
2018-01-04T06:35:55.046Z,4.63
2018-01-04T06:38:23.131Z,5.72
2018-01-04T06:40:51.175Z,5.70
2018-01-04T06:43:19.234Z,6.40
2018-01-04T06:45:47.276Z,6.07
2018-01-04T06:48:15.562Z,5.43
2018-01-04T06:50:46.538Z,7.30
2018-01-04T06:53:15.185Z,7.10
2018-01-04T06:55:43.217Z,7.83
2018-01-04T06:58:11.279Z,6.90
2018-01-04T07:00:39.813Z,6.57
2018-01-04T07:03:07.821Z,8.37
2018-01-04T07:05:35.879Z,6.33
2018-01-04T07:08:03.905Z,8.13
2018-01-04T07:10:31.963Z,8.03
2018-01-04T07:12:59.998Z,5.50
2018-01-04T07:15:28.058Z,6.47
2018-01-04T07:17:56.093Z,7.30
2018-01-04T07:20:24.150Z,6.00
2018-01-04T07:22:52.186Z,6.47
2018-01-04T07:25:20.242Z,6.40
2018-01-04T07:27:48.274Z,6.33
2018-01-04T07:30:16.329Z,5.90
2018-01-04T07:32:44.362Z,7.20
2018-01-04T07:35:12.418Z,6.53
2018-01-04T07:37:40.458Z,5.10
2018-01-04T07:40:08.513Z,7.20
2018-01-04T07:42:36.838Z,7.28
2018-01-04T07:45:05.174Z,9.70
2018-01-04T07:47:33.490Z,6.20
2018-01-04T07:50:01.826Z,7.70
2018-01-04T07:52:30.148Z,6.10
2018-01-04T07:54:58.528Z,7.47
2018-01-04T07:57:26.807Z,6.80
2018-01-04T07:59:55.163Z,7.30
2018-01-04T08:02:23.473Z,8.57
2018-01-04T08:04:51.790Z,7.97
2018-01-04T08:07:20.129Z,7.20
2018-01-04T08:09:48.447Z,8.60
2018-01-04T08:12:16.785Z,6.70
2018-01-04T08:14:45.102Z,7.50
2018-01-04T08:17:13.442Z,7.40
2018-01-04T08:19:41.757Z,6.53
2018-01-04T08:22:10.089Z,9.40
2018-01-04T08:24:38.406Z,7.60
2018-01-04T08:27:06.746Z,8.23
2018-01-04T08:29:35.058Z,8.00
2018-01-04T08:32:03.406Z,7.15
2018-01-04T08:34:31.718Z,8.25
2018-01-04T08:37:00.070Z,9.55
2018-01-04T08:39:28.386Z,11.17
2018-01-04T08:41:56.730Z,8.60
2018-01-04T08:44:25.080Z,7.70
2018-01-04T08:46:53.438Z,8.77
2018-01-04T08:49:21.761Z,9.57
2018-01-04T08:51:50.070Z,8.10
2018-01-04T08:54:18.711Z,7.80
2018-01-04T08:56:47.026Z,8.83
2018-01-04T08:59:15.365Z,9.17
2018-01-04T09:01:43.694Z,9.57
2018-01-04T09:04:12.035Z,8.23
2018-01-04T09:06:40.358Z,7.75
2018-01-04T09:09:08.694Z,9.00
2018-01-04T09:11:37.010Z,9.50
2018-01-04T09:14:05.531Z,10.15
2018-01-04T09:16:33.850Z,9.73
2018-01-04T09:19:02.191Z,10.47
2018-01-04T09:21:30.512Z,10.20
2018-01-04T09:23:58.895Z,8.93
2018-01-04T09:26:27.386Z,8.07
2018-01-04T09:28:56.091Z,9.10
2018-01-04T09:31:25.351Z,9.50
2018-01-04T09:33:54.096Z,9.10
2018-01-04T09:36:23.841Z,9.40
2018-01-04T09:38:52.597Z,8.03
2018-01-04T09:41:21.322Z,9.50
2018-01-04T09:43:50.177Z,7.60
2018-01-04T09:46:18.925Z,6.30
2018-01-04T09:48:47.663Z,9.00
2018-01-04T09:51:16.443Z,9.73
2018-01-04T09:53:46.182Z,10.57
2018-01-04T09:56:14.821Z,11.60
2018-01-04T09:58:43.349Z,10.13
2018-01-04T10:01:11.899Z,9.17
2018-01-04T10:03:40.670Z,9.50
2018-01-04T10:06:09.461Z,7.07
2018-01-04T10:08:38.144Z,11.43
2018-01-04T10:11:06.817Z,8.27
2018-01-04T10:13:35.472Z,7.37
2018-01-04T10:16:04.106Z,9.57
2018-01-04T10:18:32.730Z,7.30
2018-01-04T10:21:01.451Z,8.70
2018-01-04T10:23:30.141Z,7.87
2018-01-04T10:25:58.897Z,10.20
2018-01-04T10:28:27.670Z,8.80
2018-01-04T10:30:56.484Z,7.62
2018-01-04T10:33:25.270Z,8.57
2018-01-04T10:35:54.008Z,9.23
2018-01-04T10:38:22.669Z,10.23
2018-01-04T10:40:51.358Z,8.33
2018-01-04T10:43:19.747Z,9.77
2018-01-04T10:45:48.086Z,8.87
2018-01-04T10:48:16.406Z,9.98
2018-01-04T10:50:44.737Z,6.77
2018-01-04T10:53:13.054Z,8.70
2018-01-04T10:55:41.394Z,7.63
2018-01-04T10:58:09.718Z,12.10
2018-01-04T11:00:38.059Z,9.10
2018-01-04T11:03:06.374Z,8.90
2018-01-04T11:05:34.717Z,9.33
2018-01-04T11:08:03.038Z,8.05
2018-01-04T11:10:31.390Z,10.80
2018-01-04T11:12:59.714Z,10.07
2018-01-04T11:15:28.059Z,9.03
2018-01-04T11:17:56.382Z,10.27
2018-01-04T11:20:24.727Z,9.27
2018-01-04T11:22:53.083Z,8.53
2018-01-04T11:25:21.421Z,10.13
2018-01-04T11:27:49.741Z,9.67
2018-01-04T11:30:18.071Z,8.83
2018-01-04T11:32:46.391Z,9.13
2018-01-04T11:35:14.730Z,9.03
2018-01-04T11:37:43.709Z,8.97
2018-01-04T11:40:12.046Z,9.87
2018-01-04T11:42:40.374Z,9.20
2018-01-04T11:45:08.714Z,9.57
2018-01-04T11:47:37.034Z,9.97
2018-01-04T11:50:05.390Z,9.65
2018-01-04T11:52:33.714Z,10.43
2018-01-04T11:55:02.062Z,9.87
2018-01-04T11:57:30.719Z,9.95
2018-01-04T11:59:59.287Z,11.37
2018-01-04T12:02:27.593Z,10.10
2018-01-04T12:04:55.930Z,9.50
2018-01-04T12:07:24.252Z,10.23
2018-01-04T12:09:52.603Z,8.57
2018-01-04T12:12:20.974Z,10.02
2018-01-04T12:14:49.246Z,9.27
2018-01-04T12:17:17.583Z,11.23
2018-01-04T12:19:45.907Z,10.50
2018-01-04T12:22:14.252Z,9.20
2018-01-04T12:24:42.586Z,10.40
2018-01-04T12:27:10.925Z,9.02
2018-01-04T12:29:39.403Z,8.73
2018-01-04T12:32:08.068Z,8.70
2018-01-04T12:34:36.547Z,9.00
2018-01-04T12:37:05.277Z,9.73
2018-01-04T12:39:33.722Z,10.17
2018-01-04T12:42:02.126Z,9.93
2018-01-04T12:44:30.631Z,8.80
2018-01-04T12:46:59.118Z,9.50
2018-01-04T12:49:27.510Z,9.30
2018-01-04T12:51:56.062Z,9.73
2018-01-04T12:54:25.035Z,10.30
2018-01-04T12:56:54.580Z,9.10
2018-01-04T12:59:22.966Z,9.30
2018-01-04T13:01:51.310Z,9.50
2018-01-04T13:04:19.750Z,9.37
2018-01-04T13:06:48.087Z,9.02
2018-01-04T13:09:16.409Z,9.73
2018-01-04T13:11:44.902Z,9.68
2018-01-04T13:14:14.010Z,8.63
2018-01-04T13:16:42.350Z,8.03
2018-01-04T13:19:10.669Z,9.90
2018-01-04T13:21:39.015Z,9.30
2018-01-04T13:24:07.330Z,8.70
2018-01-04T13:26:35.679Z,7.70
2018-01-04T13:29:03.990Z,9.00
2018-01-04T13:31:32.334Z,8.98
2018-01-04T13:34:00.654Z,8.13
2018-01-04T13:36:29.001Z,9.80
2018-01-04T13:38:57.315Z,7.70
2018-01-04T13:41:25.665Z,7.93
2018-01-04T13:43:53.986Z,7.60
2018-01-04T13:46:22.322Z,7.93
2018-01-04T13:48:50.637Z,9.40
2018-01-04T13:51:18.982Z,9.00
2018-01-04T13:53:47.299Z,8.20
2018-01-04T13:56:15.637Z,7.77
2018-01-04T13:58:43.954Z,8.23
2018-01-04T14:01:12.294Z,8.30
2018-01-04T14:03:40.610Z,6.83
2018-01-04T14:06:08.951Z,8.17
2018-01-04T14:08:37.266Z,7.05
2018-01-04T14:11:05.616Z,6.20
2018-01-04T14:13:33.923Z,6.77
2018-01-04T14:16:02.283Z,6.43
2018-01-04T14:18:30.603Z,7.63
2018-01-04T14:20:58.918Z,5.47
2018-01-04T14:23:27.258Z,5.70
2018-01-04T14:25:55.894Z,5.07
2018-01-04T14:28:24.576Z,5.85
2018-01-04T14:30:52.954Z,5.83
2018-01-04T14:33:21.294Z,7.00
2018-01-04T14:35:49.610Z,5.37
2018-01-04T14:38:17.946Z,5.80
2018-01-04T14:40:46.266Z,4.30
2018-01-04T14:43:14.606Z,6.70
2018-01-04T14:45:42.919Z,5.95
2018-01-04T14:48:11.260Z,5.68
2018-01-04T14:50:39.604Z,5.20
2018-01-04T14:53:07.946Z,4.53
2018-01-04T14:55:36.267Z,4.10
2018-01-04T14:58:04.606Z,4.40
2018-01-04T15:00:32.922Z,4.63
2018-01-04T15:03:01.262Z,4.55
2018-01-04T15:05:29.668Z,4.83
2018-01-04T15:07:58.035Z,5.80
2018-01-04T15:10:26.350Z,3.13
2018-01-04T15:12:54.698Z,3.50
2018-01-04T15:15:23.027Z,3.80
2018-01-04T15:17:51.394Z,3.57
2018-01-04T15:20:19.713Z,5.60
2018-01-04T15:22:48.056Z,5.00
2018-01-04T15:25:16.376Z,6.07
2018-01-04T15:27:44.718Z,5.90
2018-01-04T15:30:13.848Z,4.10
2018-01-04T15:32:42.195Z,5.63
2018-01-04T15:35:10.505Z,4.30
2018-01-04T15:37:38.841Z,3.17
2018-01-04T15:40:07.185Z,2.35
2018-01-04T15:42:35.503Z,2.28
2018-01-04T15:45:03.822Z,2.60
2018-01-04T15:47:32.171Z,2.58
2018-01-04T15:50:00.481Z,2.00
2018-01-04T15:52:28.831Z,1.90
2018-01-04T15:54:57.149Z,3.00
2018-01-04T15:57:25.566Z,2.70
2018-01-04T15:59:53.875Z,3.30
2018-01-04T16:02:22.214Z,3.63
2018-01-04T16:04:50.545Z,3.33
2018-01-04T16:07:18.865Z,3.33
2018-01-04T16:09:47.195Z,3.90
2018-01-04T16:12:15.530Z,3.20
2018-01-04T16:14:43.847Z,3.70
2018-01-04T16:17:12.449Z,3.70
2018-01-04T16:19:40.763Z,4.30
2018-01-04T16:22:09.078Z,3.25
2018-01-04T16:24:37.415Z,2.73
2018-01-04T16:27:05.749Z,3.12
2018-01-04T16:29:34.070Z,2.28
2018-01-04T16:32:02.798Z,2.40
2018-01-04T16:34:36.032Z,3.00
2018-01-04T16:37:08.398Z,3.03
2018-01-04T16:39:36.734Z,3.20
2018-01-04T16:42:05.050Z,4.00
2018-01-04T16:44:33.390Z,6.43
2018-01-04T16:47:01.706Z,5.10
2018-01-04T16:49:30.158Z,4.03
2018-01-04T16:51:58.482Z,3.37
2018-01-04T16:54:26.822Z,2.92
2018-01-04T16:56:55.129Z,2.73
2018-01-04T16:59:23.681Z,2.62
2018-01-04T17:01:52.076Z,2.50
2018-01-04T17:04:20.435Z,3.20
2018-01-04T17:06:48.780Z,2.37
2018-01-04T17:09:17.107Z,3.17
2018-01-04T17:11:45.417Z,2.03
2018-01-04T17:14:13.747Z,2.50
2018-01-04T17:16:42.058Z,2.07
2018-01-04T17:19:10.391Z,1.60
2018-01-04T17:21:38.706Z,1.87
2018-01-04T17:24:07.047Z,1.50
2018-01-04T17:26:35.355Z,1.60
2018-01-04T17:29:03.699Z,2.70
2018-01-04T17:31:32.016Z,2.03
2018-01-04T17:34:00.363Z,1.90
2018-01-04T17:36:28.682Z,2.57
2018-01-04T17:38:56.997Z,2.87
2018-01-04T17:41:25.310Z,2.30
2018-01-04T17:43:53.646Z,2.90
2018-01-04T17:46:21.956Z,3.00
2018-01-04T17:48:50.290Z,2.40
2018-01-04T17:51:18.602Z,2.90
2018-01-04T17:53:46.943Z,3.20
2018-01-04T17:56:15.293Z,3.28
2018-01-04T17:58:43.599Z,3.10
2018-01-04T18:01:11.916Z,4.90
2018-01-04T18:03:40.255Z,3.37
2018-01-04T18:06:08.566Z,4.10
2018-01-04T18:08:36.905Z,5.25
2018-01-04T18:11:05.230Z,6.37
2018-01-04T18:13:33.564Z,6.77
2018-01-04T18:16:01.887Z,6.85
2018-01-04T18:18:30.226Z,6.90
2018-01-04T18:20:58.542Z,6.70
2018-01-04T18:23:26.887Z,9.20
2018-01-04T18:25:55.202Z,11.50
2018-01-04T18:28:23.525Z,10.93
2018-01-04T18:30:51.918Z,12.57
2018-01-04T18:33:20.242Z,11.60
2018-01-04T18:35:48.587Z,13.00
2018-01-04T18:38:17.041Z,12.10
2018-01-04T18:40:45.378Z,11.20
2018-01-04T18:43:13.701Z,12.15
2018-01-04T18:45:42.144Z,13.37
2018-01-04T18:48:10.674Z,13.25
2018-01-04T18:50:39.027Z,12.02
2018-01-04T18:53:07.350Z,14.13
2018-01-04T18:55:35.698Z,12.83
2018-01-04T18:58:04.036Z,13.77
2018-01-04T19:00:32.387Z,13.27
2018-01-04T19:03:00.710Z,12.73
2018-01-04T19:05:29.058Z,12.75
2018-01-04T19:07:57.386Z,11.70
2018-01-04T19:10:25.730Z,11.07
2018-01-04T19:12:54.059Z,11.47
2018-01-04T19:15:23.122Z,13.33
2018-01-04T19:17:51.445Z,14.13
2018-01-04T19:20:19.800Z,15.17
2018-01-04T19:22:48.127Z,15.57
2018-01-04T19:25:16.626Z,16.30
2018-01-04T19:27:45.015Z,15.60
2018-01-04T19:30:13.354Z,17.53
2018-01-04T19:32:41.674Z,13.53
2018-01-04T19:35:10.026Z,17.65
2018-01-04T19:37:38.357Z,15.73
2018-01-04T19:40:06.701Z,15.05
2018-01-04T19:42:35.867Z,17.07
2018-01-04T19:45:04.221Z,16.93
2018-01-04T19:47:32.535Z,16.50
2018-01-04T19:50:00.895Z,16.27
2018-01-04T19:52:29.223Z,17.53
2018-01-04T19:54:57.567Z,18.63
2018-01-04T19:57:25.891Z,17.93
2018-01-04T19:59:54.238Z,16.00
2018-01-04T20:02:22.559Z,14.80
2018-01-04T20:04:50.901Z,14.43
2018-01-04T20:07:19.315Z,15.50
2018-01-04T20:09:47.660Z,14.65
2018-01-04T20:12:15.974Z,14.83
2018-01-04T20:14:44.318Z,14.07
2018-01-04T20:17:12.663Z,13.53
2018-01-04T20:19:41.001Z,13.97
2018-01-04T20:22:09.330Z,11.82
2018-01-04T20:24:38.169Z,12.45
2018-01-04T20:27:06.491Z,15.13
2018-01-04T20:29:34.854Z,9.80
2018-01-04T20:32:03.218Z,12.20
2018-01-04T20:34:31.683Z,11.97
2018-01-04T20:37:00.027Z,10.77
2018-01-04T20:39:28.396Z,10.50
2018-01-04T20:41:56.797Z,9.23
2018-01-04T20:44:25.094Z,8.30
2018-01-04T20:46:53.520Z,8.02
2018-01-04T20:49:22.017Z,5.37
2018-01-04T20:51:50.798Z,4.10
2018-01-04T20:54:19.129Z,5.57
2018-01-04T20:56:47.471Z,2.73
2018-01-04T20:59:15.832Z,3.33
2018-01-04T21:01:44.351Z,3.30
2018-01-04T21:04:12.737Z,3.77
2018-01-04T21:06:41.069Z,2.90
2018-01-04T21:09:09.489Z,3.00
2018-01-04T21:11:38.843Z,2.53
2018-01-04T21:14:07.215Z,3.55
2018-01-04T21:16:35.714Z,3.70
2018-01-04T21:19:04.127Z,2.60
2018-01-04T21:21:32.806Z,3.15
2018-01-04T21:24:01.121Z,2.83
2018-01-04T21:26:29.466Z,3.27
2018-01-04T21:28:57.781Z,3.47
2018-01-04T21:31:26.354Z,5.43
2018-01-04T21:33:55.731Z,4.50
2018-01-04T21:36:25.170Z,4.60
2018-01-04T21:38:53.497Z,4.68
2018-01-04T21:41:21.952Z,4.30
2018-01-04T21:43:50.823Z,4.40
2018-01-04T21:46:19.697Z,5.07
2018-01-04T21:48:48.670Z,5.00
2018-01-04T21:51:16.997Z,4.28
2018-01-04T21:53:45.374Z,4.00
2018-01-04T21:56:13.714Z,3.33
2018-01-04T21:58:42.027Z,3.30
2018-01-04T22:01:10.357Z,4.35
2018-01-04T22:03:38.678Z,3.75
2018-01-04T22:06:07.018Z,3.12
2018-01-04T22:08:35.342Z,3.70
2018-01-04T22:11:03.699Z,2.93
2018-01-04T22:13:31.998Z,4.05
2018-01-04T22:16:00.339Z,3.73
2018-01-04T22:18:28.650Z,3.73
2018-01-04T22:20:56.989Z,4.10
2018-01-04T22:23:25.310Z,3.60
2018-01-04T22:25:53.655Z,3.10
2018-01-04T22:28:22.026Z,4.97
2018-01-04T22:30:50.438Z,2.73
2018-01-04T22:33:19.070Z,4.30
2018-01-04T22:35:48.339Z,3.60
2018-01-04T22:38:16.658Z,4.15
2018-01-04T22:40:44.982Z,4.17
2018-01-04T22:43:13.323Z,3.73
2018-01-04T22:45:42.691Z,2.93
2018-01-04T22:48:11.035Z,3.47
2018-01-04T22:50:40.779Z,3.10
2018-01-04T22:53:09.144Z,2.60
2018-01-04T22:55:38.382Z,3.33
2018-01-04T22:58:06.726Z,3.20
2018-01-04T23:00:35.047Z,3.80
2018-01-04T23:03:03.386Z,2.33
2018-01-04T23:05:31.699Z,3.45
2018-01-04T23:08:00.049Z,2.47
2018-01-04T23:10:28.350Z,3.00
2018-01-04T23:12:56.696Z,2.87
2018-01-04T23:15:25.009Z,2.67
2018-01-04T23:17:53.346Z,2.80
2018-01-04T23:20:21.662Z,3.57
2018-01-04T23:22:50.001Z,2.53
2018-01-04T23:25:18.369Z,2.40
2018-01-04T23:27:46.657Z,2.53
2018-01-04T23:30:14.975Z,2.87
2018-01-04T23:32:43.322Z,2.80
2018-01-04T23:35:11.638Z,2.15
2018-01-04T23:37:39.970Z,2.50
2018-01-04T23:40:08.285Z,2.10
2018-01-04T23:42:36.609Z,1.53
2018-01-04T23:45:04.923Z,2.85
2018-01-04T23:47:33.271Z,2.58
2018-01-04T23:50:01.582Z,2.90
2018-01-04T23:52:29.918Z,2.40
2018-01-04T23:54:59.138Z,2.37
2018-01-04T23:57:27.469Z,2.10
2018-01-04T23:59:55.781Z,1.90
